Time;durP1;ratioP1;P1;durP2;ratioP2;P2;SDS_P1;SDS_P2;PMS_P1;PMS_P2;Temp;Humidity;BMP_temperature;BMP_pressure;BME280_temperature;BME280_humidity;BME280_pressure;Samples;Min_cycle;Max_cycle;Signal;HPM_P1;HPM_P2
2023/10/22 00:02:28;;;;;;;5.35;1.08;;;14.30;99.90;;;14.27;61.66;98922.56;5100590;28;20040;-81
2023/10/22 00:04:55;;;;;;;7.40;1.48;;;14.30;99.90;;;14.27;62.53;98926.06;5116278;28;20039;-81
2023/10/22 00:07:23;;;;;;;9.63;1.67;;;14.30;99.90;;;14.29;62.13;98933.81;5121316;28;20047;-81
2023/10/22 00:09:50;;;;;;;6.72;1.42;;;14.30;99.90;;;14.26;61.98;98932.50;5121110;28;20035;-81
2023/10/22 00:12:18;;;;;;;5.18;1.10;;;14.30;99.90;;;14.24;61.67;98931.94;5120774;28;20055;-82
2023/10/22 00:14:45;;;;;;;6.57;1.35;;;14.30;99.90;;;14.25;62.25;98938.94;5119493;28;20557;-82
2023/10/22 00:17:12;;;;;;;5.70;1.15;;;14.30;99.90;;;14.25;62.13;98933.59;5119999;28;20047;-81
2023/10/22 00:19:50;;;;;;;5.18;1.02;;;14.30;99.90;;;14.22;62.29;98938.69;5119831;28;20051;-81
2023/10/22 00:22:18;;;;;;;5.80;1.20;;;14.30;99.90;;;14.27;62.49;98935.97;5100943;28;20044;-81
2023/10/22 00:24:45;;;;;;;5.40;1.17;;;14.30;99.90;;;14.28;62.61;98938.38;5117514;28;20075;-81
2023/10/22 00:27:11;;;;;;;5.38;1.40;;;14.30;99.90;;;14.29;62.71;98934.63;5118449;28;20051;-81
2023/10/22 00:29:41;;;;;;;7.30;1.40;;;14.30;99.90;;;14.31;62.38;98937.03;5117913;28;20039;-81
2023/10/22 00:32:08;;;;;;;7.65;1.27;;;14.30;99.90;;;14.30;62.68;98941.59;5100767;28;20048;-81
2023/10/22 00:34:36;;;;;;;4.45;1.00;;;14.30;99.90;;;14.32;62.66;98938.66;5118456;28;20101;-81
2023/10/22 00:37:05;;;;;;;5.07;1.02;;;14.30;99.90;;;14.28;62.12;98951.78;5117992;28;20139;-81
2023/10/22 00:39:33;;;;;;;7.13;1.23;;;14.30;99.90;;;14.29;62.82;98952.59;5118037;28;20395;-81
2023/10/22 00:42:00;;;;;;;5.95;1.25;;;14.30;99.90;;;14.32;62.73;98954.72;5119299;28;20067;-81
2023/10/22 00:44:29;;;;;;;5.50;1.02;;;14.30;99.90;;;14.30;62.37;98944.28;5119806;28;20039;-81
2023/10/22 00:46:59;;;;;;;5.30;1.30;;;14.30;99.90;;;14.27;61.86;98952.06;5120286;28;20395;-81
2023/10/22 00:49:26;;;;;;;4.93;1.30;;;14.30;99.90;;;14.25;62.30;98943.47;5117684;28;20043;-81
2023/10/22 00:51:56;;;;;;;5.93;1.30;;;14.30;99.90;;;14.25;62.46;98960.41;5118654;28;20052;-81
2023/10/22 00:54:26;;;;;;;5.53;1.30;;;14.30;99.90;;;14.28;62.90;98948.31;5100425;28;20051;-81
2023/10/22 00:56:56;;;;;;;7.35;1.67;;;14.30;99.90;;;14.23;63.04;98961.72;5100913;28;20056;-81
2023/10/22 00:59:24;;;;;;;4.55;1.10;;;14.20;99.90;;;14.27;62.83;98955.56;5117642;28;20116;-81
2023/10/22 01:01:52;;;;;;;6.15;1.08;;;14.30;99.90;;;14.33;63.13;98957.13;5117293;28;20040;-81
2023/10/22 01:04:19;;;;;;;6.32;1.55;;;14.30;99.90;;;14.25;62.83;98963.06;5118302;28;20107;-81
2023/10/22 01:06:47;;;;;;;7.57;1.02;;;14.30;99.90;;;14.25;62.68;98963.06;5117904;28;20036;-81
2023/10/22 01:09:16;;;;;;;7.38;1.40;;;14.20;99.90;;;14.25;62.93;98960.41;5098507;28;20068;-81
2023/10/22 01:12:01;;;;;;;6.20;1.55;;;14.20;99.90;;;14.27;62.89;98963.59;5085969;28;20063;-81
2023/10/22 01:14:30;;;;;;;6.10;1.48;;;14.20;99.90;;;14.21;63.19;98962.00;5078471;28;20500;-81
2023/10/22 01:16:58;;;;;;;6.45;1.30;;;14.20;99.90;;;14.18;63.03;98965.22;5080064;28;20040;-81
2023/10/22 01:19:26;;;;;;;6.03;1.30;;;14.20;99.90;;;14.22;63.03;98978.91;5101072;28;20039;-81
2023/10/22 01:21:58;;;;;;;6.53;1.38;;;14.20;99.90;;;14.19;62.88;98969.50;5101011;28;20073;-81
2023/10/22 01:24:27;;;;;;;8.48;1.30;;;14.20;99.90;;;14.19;63.46;98972.19;5121045;28;20062;-81
2023/10/22 01:26:54;;;;;;;5.07;1.00;;;14.20;99.90;;;14.21;63.37;98980.78;5122739;28;20047;-81
2023/10/22 01:29:22;;;;;;;4.82;1.05;;;14.20;99.90;;;14.25;64.09;98973.81;5123025;28;20047;-81
2023/10/22 01:31:49;;;;;;;4.95;1.10;;;14.20;99.90;;;14.27;64.44;98974.31;5123065;28;20075;-81
2023/10/22 01:34:17;;;;;;;5.68;1.25;;;14.20;99.90;;;14.24;63.94;98972.19;5125315;28;20052;-81
2023/10/22 01:36:45;;;;;;;8.15;1.27;;;14.20;99.90;;;14.21;63.03;98978.09;5108101;28;20138;-81
2023/10/22 01:39:14;;;;;;;4.70;1.30;;;14.20;99.90;;;14.15;63.71;98981.84;5107935;28;20047;-81
2023/10/22 01:41:44;;;;;;;3.90;1.10;;;14.20;99.90;;;14.14;64.17;98980.25;5124040;28;20032;-81
2023/10/22 01:44:11;;;;;;;4.20;0.90;;;14.10;99.90;;;14.10;64.24;98989.91;5126307;28;20044;-81
2023/10/22 01:46:39;;;;;;;5.15;1.20;;;14.10;99.90;;;14.09;63.93;98978.38;5125567;28;20410;-81
2023/10/22 01:49:06;;;;;;;6.93;1.40;;;14.10;99.90;;;14.16;64.55;98986.94;5126331;28;20043;-81
2023/10/22 01:51:34;;;;;;;4.38;1.38;;;14.10;99.90;;;14.15;64.15;98987.19;5090710;28;20056;-81
2023/10/22 01:54:02;;;;;;;5.47;1.23;;;14.10;99.90;;;14.12;64.39;98985.88;5107396;28;20050;-81
2023/10/22 01:56:29;;;;;;;5.18;1.10;;;14.10;99.90;;;14.10;64.71;98987.22;5124633;28;20052;-81
2023/10/22 01:58:59;;;;;;;6.57;1.20;;;14.10;99.90;;;14.14;64.41;98988.28;5104899;28;20545;-81
2023/10/22 02:01:26;;;;;;;3.78;1.10;;;14.10;99.90;;;14.17;65.31;98996.59;5121255;28;20113;-81
2023/10/22 02:03:54;;;;;;;5.95;1.23;;;14.10;99.90;;;14.13;64.55;99000.09;5070719;28;20047;-81
2023/10/22 02:06:22;;;;;;;7.75;1.30;;;14.10;99.90;;;14.11;64.35;98999.56;5105776;28;20046;-81
2023/10/22 02:08:49;;;;;;;6.40;1.15;;;14.10;99.90;;;14.10;64.66;99000.63;5122084;28;20040;-81
2023/10/22 02:11:16;;;;;;;5.13;1.20;;;14.10;99.90;;;14.14;65.06;98997.13;5115590;28;20506;-81
2023/10/22 02:13:44;;;;;;;5.20;1.10;;;14.10;99.90;;;14.18;65.00;98995.53;5122437;28;20057;-81
2023/10/22 02:16:12;;;;;;;5.15;1.52;;;14.10;99.90;;;14.20;64.39;99005.16;5122907;28;20111;-81
2023/10/22 02:18:40;;;;;;;7.05;1.15;;;14.10;99.90;;;14.13;64.70;99010.81;5121004;28;20421;-81
2023/10/22 02:21:08;;;;;;;5.30;1.10;;;14.10;99.90;;;14.10;65.33;99022.91;5123118;28;20040;-81
2023/10/22 02:23:35;;;;;;;4.35;1.25;;;14.10;99.90;;;14.10;64.71;99014.03;5120364;28;20139;-82
2023/10/22 02:26:04;;;;;;;3.33;1.00;;;14.10;99.90;;;14.12;65.24;99018.06;5121422;28;20101;-82
2023/10/22 02:28:31;;;;;;;6.15;1.30;;;14.00;99.90;;;14.04;65.24;99023.16;5085601;28;20071;-82
2023/10/22 02:30:58;;;;;;;7.25;1.58;;;14.00;99.90;;;14.02;65.26;99026.13;5121205;28;20112;-82
2023/10/22 02:33:27;;;;;;;4.50;1.00;;;14.00;99.90;;;14.01;65.52;99018.34;5121724;28;20047;-82
2023/10/22 02:35:55;;;;;;;3.90;1.10;;;14.00;99.90;;;14.06;65.55;99032.53;5120547;28;20103;-82
2023/10/22 02:38:23;;;;;;;3.92;1.10;;;14.00;99.90;;;14.05;65.93;99035.47;5120984;28;20097;-82
2023/10/22 02:40:50;;;;;;;4.35;1.40;;;14.00;99.90;;;14.07;65.54;99039.50;5120045;28;20040;-82
2023/10/22 02:43:18;;;;;;;4.95;1.20;;;14.00;99.90;;;14.06;66.17;99040.59;5115785;28;20044;-81
2023/10/22 02:45:52;;;;;;;3.65;1.00;;;14.00;99.90;;;14.00;65.90;99030.91;5105539;28;20052;-81
2023/10/22 02:48:20;;;;;;;4.47;1.00;;;14.00;99.90;;;14.02;66.51;99036.84;5119414;28;20040;-81
2023/10/22 02:50:49;;;;;;;7.18;1.48;;;14.00;99.90;;;14.06;66.98;99037.91;5119336;28;20053;-81
2023/10/22 02:53:17;;;;;;;5.57;1.10;;;14.00;99.90;;;14.01;66.58;99037.91;5120723;28;20085;-81
2023/10/22 02:55:46;;;;;;;6.32;1.00;;;14.00;99.90;;;14.01;66.41;99034.44;5085043;28;20062;-81
2023/10/22 02:58:13;;;;;;;4.85;1.13;;;13.90;99.90;;;13.93;66.85;99041.13;5102761;28;20046;-81
2023/10/22 03:00:41;;;;;;;5.90;0.90;;;13.90;99.90;;;13.81;66.90;99036.03;5103811;28;20460;-82
2023/10/22 03:03:09;;;;;;;5.47;1.10;;;13.80;99.90;;;13.82;67.35;99042.19;5120186;28;20044;-82
2023/10/22 03:05:36;;;;;;;3.47;1.00;;;13.80;99.90;;;13.79;67.42;99046.22;5122155;28;20059;-82
2023/10/22 03:08:06;;;;;;;3.10;1.00;;;13.80;99.90;;;13.85;67.47;99057.72;5120011;28;20052;-82
2023/10/22 03:10:37;;;;;;;3.83;0.90;;;13.80;99.90;;;13.84;67.70;99069.53;5120864;28;20533;-82
2023/10/22 03:13:06;;;;;;;5.00;1.10;;;13.70;99.90;;;13.87;67.77;99056.41;5120169;28;20154;-82
2023/10/22 03:15:36;;;;;;;3.85;1.00;;;13.70;99.90;;;13.82;67.78;99077.03;5120494;28;20046;-82
2023/10/22 03:18:04;;;;;;;3.20;0.98;;;13.70;99.90;;;13.80;68.50;99068.44;5120096;28;20054;-82
2023/10/22 03:20:33;;;;;;;5.28;1.00;;;13.70;99.90;;;13.88;68.23;99078.66;5102930;28;20039;-82
2023/10/22 03:23:03;;;;;;;2.60;0.80;;;13.70;99.90;;;13.86;68.34;99086.16;5120834;28;20410;-82
2023/10/22 03:25:34;;;;;;;5.68;1.00;;;13.70;99.90;;;13.85;68.08;99088.00;5118649;28;20040;-82
2023/10/22 03:28:01;;;;;;;5.75;1.02;;;13.70;99.90;;;13.81;68.25;99081.59;5119259;28;20040;-82
2023/10/22 03:30:29;;;;;;;4.03;0.85;;;13.70;99.90;;;13.69;68.52;99097.09;5102983;28;20073;-82
2023/10/22 03:32:56;;;;;;;4.45;1.10;;;13.70;99.90;;;13.67;68.44;99096.56;5120010;28;20040;-82
2023/10/22 03:35:24;;;;;;;4.93;1.00;;;13.60;99.90;;;13.62;69.39;99096.56;5119790;28;20048;-82
2023/10/22 03:37:52;;;;;;;3.03;0.80;;;13.60;99.90;;;13.59;69.50;99097.88;5119426;28;20134;-82
2023/10/22 03:40:20;;;;;;;2.78;0.88;;;13.60;99.90;;;13.66;69.84;99105.66;5120803;28;20088;-81
2023/10/22 03:42:49;;;;;;;4.07;0.93;;;13.60;99.90;;;13.69;69.51;99102.47;5119446;28;20043;-81
2023/10/22 03:45:17;;;;;;;3.40;0.80;;;13.60;99.90;;;13.76;69.70;99102.19;5102518;28;20071;-81
2023/10/22 03:47:44;;;;;;;3.40;0.90;;;13.60;99.90;;;13.80;69.67;99098.72;5104884;28;20051;-81
2023/10/22 03:50:11;;;;;;;3.47;1.15;;;13.60;99.90;;;13.83;69.38;99113.47;5101683;28;20104;-81
2023/10/22 03:52:39;;;;;;;4.97;0.90;;;13.70;99.90;;;13.80;69.90;99105.97;5049011;28;20044;-81
2023/10/22 03:55:07;;;;;;;4.78;0.77;;;13.70;99.90;;;13.84;69.60;99115.88;5100345;28;20056;-81
2023/10/22 03:57:35;;;;;;;3.72;0.90;;;13.70;99.90;;;13.83;69.91;99119.63;5099000;28;20038;-81
2023/10/22 04:00:07;;;;;;;3.10;0.60;;;13.70;99.90;;;13.88;69.80;99119.66;5098492;28;20097;-81
2023/10/22 04:02:39;;;;;;;4.10;0.88;;;13.70;99.90;;;13.92;69.98;99130.66;5099476;28;20040;-81
2023/10/22 04:05:08;;;;;;;3.03;0.90;;;13.70;99.90;;;13.83;70.04;99135.72;5081421;28;20081;-81
2023/10/22 04:07:35;;;;;;;2.58;0.70;;;13.70;99.90;;;13.78;70.21;99135.72;5098116;28;20074;-82
2023/10/22 04:10:09;;;;;;;3.28;0.80;;;13.60;99.90;;;13.75;70.36;99136.22;5098128;28;20135;-82
2023/10/22 04:12:37;;;;;;;2.78;0.70;;;13.60;99.90;;;13.76;70.15;99129.81;5099012;28;20044;-82
2023/10/22 04:15:08;;;;;;;2.70;0.70;;;13.60;99.90;;;13.76;70.16;99137.03;5046746;28;20074;-82
2023/10/22 04:17:35;;;;;;;3.00;0.98;;;13.50;99.90;;;13.75;70.53;99140.78;5097720;28;20048;-82
2023/10/22 04:20:03;;;;;;;2.88;0.90;;;13.60;99.90;;;13.75;70.69;99143.47;5099591;28;20054;-82
2023/10/22 04:22:31;;;;;;;3.70;0.60;;;13.60;99.90;;;13.78;70.76;99154.47;5081600;28;20047;-82
2023/10/22 04:24:59;;;;;;;4.22;0.90;;;13.60;99.90;;;13.68;71.16;99157.13;5097124;28;20056;-82
2023/10/22 04:27:26;;;;;;;1.23;0.50;;;13.60;99.90;;;13.74;71.39;99155.25;5114674;28;20048;-82
2023/10/22 04:29:55;;;;;;;1.55;0.52;;;13.60;99.90;;;13.80;71.42;99160.34;5118593;28;20047;-82
2023/10/22 04:32:24;;;;;;;3.03;0.82;;;13.60;99.90;;;13.79;71.24;99161.44;5118741;28;20486;-82
2023/10/22 04:34:52;;;;;;;3.38;0.80;;;13.60;99.90;;;13.79;71.21;99174.84;5118102;28;20514;-82
2023/10/22 04:37:20;;;;;;;5.55;0.95;;;13.60;99.90;;;13.81;71.27;99180.75;5101937;28;20044;-82
2023/10/22 04:39:47;;;;;;;4.63;0.57;;;13.60;99.90;;;13.77;71.32;99174.31;5119829;28;20055;-82
2023/10/22 04:42:14;;;;;;;4.57;0.80;;;13.60;99.90;;;13.79;71.78;99184.75;5118869;28;20478;-82
2023/10/22 04:44:45;;;;;;;1.75;0.50;;;13.60;99.90;;;13.79;71.90;99193.59;5121022;28;20039;-82
2023/10/22 04:47:13;;;;;;;2.75;0.60;;;13.60;99.90;;;13.79;71.87;99188.22;5120308;28;20456;-82
2023/10/22 04:49:44;;;;;;;0.93;0.43;;;13.60;99.90;;;13.81;71.95;99186.09;5118303;28;20040;-82
2023/10/22 04:52:21;;;;;;;3.92;0.88;;;13.70;99.90;;;13.73;72.22;99191.97;5085508;28;20043;-82
2023/10/22 04:54:48;;;;;;;2.20;0.85;;;13.60;99.90;;;13.74;72.31;99201.63;5120251;28;20048;-82
2023/10/22 04:57:15;;;;;;;2.15;0.63;;;13.60;99.90;;;13.66;72.12;99204.78;5117818;28;20047;-81
2023/10/22 04:59:43;;;;;;;2.20;0.70;;;13.60;99.90;;;13.69;72.54;99217.69;5121920;28;20044;-81
2023/10/22 05:02:11;;;;;;;5.43;0.70;;;13.60;99.90;;;13.66;72.75;99194.06;5123817;28;20077;-81
2023/10/22 05:04:38;;;;;;;2.95;0.82;;;13.60;99.90;;;13.58;73.05;99213.34;5125673;28;20047;-81
2023/10/22 05:07:07;;;;;;;1.52;0.68;;;13.60;99.90;;;13.59;73.08;99214.97;5124464;28;20513;-81
2023/10/22 05:09:35;;;;;;;2.47;0.60;;;13.60;99.90;;;13.61;73.21;99213.63;5125360;28;20487;-83
2023/10/22 05:12:02;;;;;;;12.18;1.23;;;13.60;99.90;;;13.57;73.23;99225.16;5123998;28;20399;-81
2023/10/22 05:14:30;;;;;;;2.25;0.63;;;13.60;99.90;;;13.56;72.93;99218.94;5124782;28;20047;-81
2023/10/22 05:16:58;;;;;;;1.60;0.60;;;13.60;99.90;;;13.56;73.09;99234.22;5119700;28;20044;-83
2023/10/22 05:19:26;;;;;;;2.80;0.98;;;13.60;99.90;;;13.58;72.92;99234.78;5126588;28;20050;-81
2023/10/22 05:21:53;;;;;;;2.20;0.60;;;13.50;99.90;;;13.59;72.78;99244.44;5126437;28;20043;-81
2023/10/22 05:24:22;;;;;;;1.75;0.50;;;13.60;99.90;;;13.65;73.17;99241.50;5120471;28;20078;-84
2023/10/22 05:26:50;;;;;;;2.88;1.00;;;13.60;99.90;;;13.70;72.92;99242.59;5120437;28;20523;-83
2023/10/22 05:29:17;;;;;;;1.55;0.60;;;13.60;99.90;;;13.61;73.53;99250.31;5101964;28;20479;-84
2023/10/22 05:31:45;;;;;;;4.63;0.98;;;13.60;99.90;;;13.68;73.70;99260.81;5118689;28;20040;-84
2023/10/22 05:34:13;;;;;;;3.58;0.90;;;13.60;99.90;;;13.70;73.81;99270.19;5120930;28;20050;-83
2023/10/22 05:36:41;;;;;;;3.78;0.80;;;13.60;99.90;;;13.76;73.55;99271.00;5118984;28;20502;-83
2023/10/22 05:39:09;;;;;;;5.80;1.05;;;13.60;99.90;;;13.82;73.43;99278.03;5119307;28;20078;-83
2023/10/22 05:41:39;;;;;;;2.72;0.73;;;13.70;99.90;;;13.74;73.86;99291.91;5118634;28;20131;-83
2023/10/22 05:44:09;;;;;;;3.65;0.82;;;13.60;99.90;;;13.69;73.91;99289.22;5119168;27;20040;-83
2023/10/22 05:46:37;;;;;;;1.65;0.60;;;13.60;99.90;;;13.67;73.56;99291.38;5119245;28;20035;-83
2023/10/22 05:49:05;;;;;;;4.00;0.70;;;13.60;99.90;;;13.59;74.09;99296.13;5120007;28;20047;-83
2023/10/22 05:51:33;;;;;;;3.95;0.70;;;13.60;99.90;;;13.63;73.83;99304.47;5117729;28;20096;-83
2023/10/22 05:54:01;;;;;;;3.25;0.80;;;13.60;99.90;;;13.67;74.08;99304.75;5118119;28;20498;-83
2023/10/22 05:56:32;;;;;;;3.55;0.70;;;13.60;99.90;;;13.71;73.51;99313.88;5120966;28;20092;-84
2023/10/22 05:59:04;;;;;;;1.85;0.60;;;13.60;99.90;;;13.70;73.35;99315.75;5121231;28;20058;-84
2023/10/22 06:01:32;;;;;;;3.53;0.80;;;13.60;99.90;;;13.69;72.61;99314.13;5119946;28;20096;-84
2023/10/22 06:03:59;;;;;;;1.33;0.60;;;13.60;99.90;;;13.65;72.33;99324.56;5122680;28;20498;-84
2023/10/22 06:06:26;;;;;;;3.13;0.57;;;13.50;99.90;;;13.57;71.56;99318.91;5123239;28;20047;-83
2023/10/22 06:08:54;;;;;;;2.28;0.65;;;13.50;99.90;;;13.63;72.48;99336.63;5123653;28;20051;-83
2023/10/22 06:11:22;;;;;;;1.73;0.60;;;13.50;99.90;;;13.60;71.46;99329.09;5105577;28;20062;-83
2023/10/22 06:13:49;;;;;;;2.00;0.80;;;13.50;99.90;;;13.60;71.58;99339.78;5124211;28;20035;-83
2023/10/22 06:16:18;;;;;;;1.80;0.70;;;13.50;99.90;;;13.62;72.23;99345.72;5124023;28;20058;-84
2023/10/22 06:18:47;;;;;;;1.30;0.60;;;13.50;99.90;;;13.66;72.03;99352.16;5122919;28;20568;-84
2023/10/22 06:21:15;;;;;;;1.73;0.70;;;13.50;99.90;;;13.64;72.36;99348.94;5100530;28;20051;-84
2023/10/22 06:23:43;;;;;;;1.38;0.55;;;13.50;99.90;;;13.68;72.37;99352.72;5109950;28;20059;-82
2023/10/22 06:26:11;;;;;;;2.35;0.70;;;13.50;99.90;;;13.68;72.40;99358.06;5102232;28;20044;-83
2023/10/22 06:28:39;;;;;;;2.53;0.70;;;13.50;99.90;;;13.73;72.71;99357.31;5102422;28;20051;-83
2023/10/22 06:31:07;;;;;;;2.13;0.80;;;13.50;99.90;;;13.74;72.22;99366.94;5084874;28;20138;-84
2023/10/22 06:33:38;;;;;;;2.10;0.65;;;13.50;99.90;;;13.71;72.24;99370.13;5102358;28;20036;-83
2023/10/22 06:36:14;;;;;;;1.10;0.50;;;13.50;99.90;;;13.62;72.14;99380.56;5103121;28;20040;-83
2023/10/22 06:38:42;;;;;;;4.63;0.60;;;13.40;99.90;;;13.65;72.26;99382.69;5101788;28;20328;-83
2023/10/22 06:41:14;;;;;;;1.88;0.60;;;13.40;99.90;;;13.62;72.34;99380.56;5102448;28;20469;-83
2023/10/22 06:43:42;;;;;;;1.48;0.60;;;13.40;99.90;;;13.61;72.12;99384.28;5102756;28;20044;-84
2023/10/22 06:46:10;;;;;;;2.42;0.80;;;13.40;99.90;;;13.57;72.39;99388.56;5101702;28;20048;-80
2023/10/22 06:48:40;;;;;;;2.60;0.80;;;13.40;99.90;;;13.58;71.91;99398.19;5103428;28;20040;-80
2023/10/22 06:51:11;;;;;;;3.90;0.82;;;13.40;99.90;;;13.55;72.29;99396.81;5103767;28;20124;-80
2023/10/22 06:53:39;;;;;;;1.80;0.63;;;13.40;99.90;;;13.59;72.33;99407.84;5120330;28;20548;-81
2023/10/22 06:56:07;;;;;;;2.83;0.70;;;13.40;99.90;;;13.57;71.75;99410.78;5104827;28;20075;-81
2023/10/22 06:58:35;;;;;;;1.52;0.65;;;13.40;99.90;;;13.60;72.08;99414.81;5116349;28;20041;-81
2023/10/22 07:01:07;;;;;;;2.25;0.63;;;13.40;99.90;;;13.64;72.59;99407.88;5106944;28;20091;-81
2023/10/22 07:03:36;;;;;;;2.00;0.70;;;13.40;99.90;;;13.68;72.31;99410.88;5114631;28;20084;-81
2023/10/22 07:06:05;;;;;;;3.58;0.90;;;13.50;99.90;;;13.67;71.90;99414.63;5126919;28;20099;-81
2023/10/22 07:08:32;;;;;;;2.95;0.70;;;13.40;99.90;;;13.67;71.75;99417.28;5126346;28;20040;-81
2023/10/22 07:11:01;;;;;;;1.95;0.60;;;13.40;99.90;;;13.70;72.12;99422.91;5125733;28;20073;-82
2023/10/22 07:13:30;;;;;;;1.95;0.70;;;13.50;99.90;;;13.72;71.87;99422.69;5125540;28;20040;-81
2023/10/22 07:15:58;;;;;;;2.72;0.90;;;13.50;99.90;;;13.69;71.24;99433.91;5109735;28;20044;-81
2023/10/22 07:18:25;;;;;;;3.88;0.70;;;13.50;99.90;;;13.72;71.69;99430.72;5101973;28;20043;-84
2023/10/22 07:20:53;;;;;;;3.17;0.75;;;13.50;99.90;;;13.73;71.86;99435.81;5069980;28;20476;-81
2023/10/22 07:23:21;;;;;;;2.30;0.63;;;13.50;99.90;;;13.75;71.60;99433.69;5107564;28;20119;-82
2023/10/22 07:25:49;;;;;;;3.10;0.70;;;13.60;99.90;;;13.81;71.84;99450.59;5104262;28;20044;-81
2023/10/22 07:28:16;;;;;;;3.17;0.85;;;13.60;99.90;;;13.80;70.86;99452.47;5084838;28;20069;-82
2023/10/22 07:30:51;;;;;;;1.20;0.57;;;13.60;99.90;;;13.69;70.62;99458.81;5103807;28;20028;-81
2023/10/22 07:33:19;;;;;;;1.73;0.70;;;13.60;99.90;;;13.67;70.09;99463.66;5097932;28;20127;-82
2023/10/22 07:35:54;;;;;;;3.60;0.88;;;13.60;99.90;;;13.63;70.12;99467.91;5093252;28;20040;-83
2023/10/22 07:38:24;;;;;;;2.53;1.00;;;13.60;99.90;;;13.61;69.61;99470.00;5103787;28;20036;-82
2023/10/22 07:40:55;;;;;;;2.35;0.90;;;13.50;99.90;;;13.59;69.87;99480.19;5104627;28;20109;-82
2023/10/22 07:43:24;;;;;;;1.98;0.90;;;13.50;99.90;;;13.61;70.37;99488.75;5102948;28;20070;-82
2023/10/22 07:45:51;;;;;;;5.85;0.98;;;13.50;99.90;;;13.64;70.21;99486.38;5102106;28;20044;-82
2023/10/22 07:48:20;;;;;;;2.70;0.90;;;13.50;99.90;;;13.55;69.97;99487.09;5084027;28;20035;-82
2023/10/22 07:50:48;;;;;;;3.22;0.88;;;13.50;99.90;;;13.62;70.35;99487.72;5096255;28;20095;-82
2023/10/22 07:53:16;;;;;;;2.30;0.68;;;13.50;99.90;;;13.63;70.17;99500.03;5102411;28;20057;-82
2023/10/22 07:55:45;;;;;;;1.92;0.80;;;13.50;99.90;;;13.65;69.91;99505.94;5101783;28;20054;-82
2023/10/22 07:58:13;;;;;;;3.92;0.90;;;13.50;99.90;;;13.66;69.33;99510.25;5101564;28;20052;-82
2023/10/22 08:00:40;;;;;;;2.70;0.80;;;13.60;99.90;;;13.69;69.63;99511.63;5104030;28;20056;-81
2023/10/22 08:03:08;;;;;;;2.25;0.70;;;13.60;99.90;;;13.66;69.45;99515.59;5102880;28;20044;-81
2023/10/22 08:05:35;;;;;;;4.25;1.08;;;13.60;99.90;;;13.64;69.42;99515.84;5104054;28;20044;-81
2023/10/22 08:08:02;;;;;;;2.15;0.80;;;13.60;99.90;;;13.66;69.32;99520.94;5086422;28;20088;-81
2023/10/22 08:10:30;;;;;;;1.70;0.80;;;13.60;99.90;;;13.70;68.82;99526.63;5103200;28;20070;-82
2023/10/22 08:12:59;;;;;;;3.42;0.80;;;13.60;99.90;;;13.68;69.48;99518.84;5104694;28;20153;-82
2023/10/22 08:15:26;;;;;;;3.33;0.80;;;13.60;99.90;;;13.74;69.66;99525.84;5103702;28;20099;-82
2023/10/22 08:17:53;;;;;;;2.25;0.80;;;13.60;99.90;;;13.81;70.27;99528.31;5102957;28;20055;-81
2023/10/22 08:20:21;;;;;;;4.60;1.20;;;13.70;99.90;;;13.86;69.73;99525.72;5104624;28;20082;-81
2023/10/22 08:22:50;;;;;;;3.53;1.02;;;13.70;99.90;;;13.88;69.57;99540.44;5103293;28;20044;-81
2023/10/22 08:25:20;;;;;;;2.75;1.00;;;13.80;99.90;;;13.88;69.28;99542.31;5091661;28;20032;-82
2023/10/22 08:27:47;;;;;;;2.92;0.82;;;13.80;99.90;;;13.90;69.43;99543.66;5070056;28;20449;-82
2023/10/22 08:30:17;;;;;;;4.30;1.10;;;13.80;99.90;;;13.90;69.52;99545.53;5120702;28;20052;-82
2023/10/22 08:32:46;;;;;;;3.28;1.15;;;13.80;99.90;;;13.96;69.27;99549.91;5107492;28;20101;-82
2023/10/22 08:35:14;;;;;;;2.20;0.80;;;13.90;99.90;;;13.97;69.61;99553.41;5105755;28;20137;-82
2023/10/22 08:37:42;;;;;;;4.20;0.90;;;13.90;99.90;;;13.87;68.93;99554.91;5107015;28;20554;-82
2023/10/22 08:40:11;;;;;;;2.47;0.93;;;13.80;99.90;;;13.84;68.80;99563.47;5108314;28;20071;-82
2023/10/22 08:42:41;;;;;;;4.85;1.02;;;13.80;99.90;;;13.84;68.55;99555.41;5109600;28;20044;-82
2023/10/22 08:45:11;;;;;;;5.25;1.02;;;13.80;99.90;;;13.88;69.04;99569.94;5108763;28;20076;-82
2023/10/22 08:47:41;;;;;;;4.63;0.95;;;13.80;99.90;;;13.94;69.29;99564.63;5075235;28;20064;-82
2023/10/22 08:50:12;;;;;;;3.83;1.13;;;13.90;99.90;;;13.83;68.44;99569.88;5108646;28;20048;-82
2023/10/22 08:52:40;;;;;;;;;;;13.80;99.90;;;13.86;69.23;99558.66;5110090;28;20089;-82
2023/10/22 08:55:09;;;;;;;2.45;0.70;;;13.80;99.90;;;13.88;69.63;99564.56;5109098;28;20307;-82
2023/10/22 08:57:37;;;;;;;3.40;1.00;;;13.90;99.90;;;13.91;69.89;99572.13;5107328;28;20064;-82
2023/10/22 09:00:09;;;;;;;4.13;0.90;;;13.90;99.90;;;13.87;69.76;99573.69;5107517;28;20070;-82
2023/10/22 09:02:38;;;;;;;4.03;0.90;;;13.90;99.90;;;13.87;69.17;99571.00;5107041;28;20576;-82
2023/10/22 09:05:08;;;;;;;4.00;1.13;;;13.90;99.90;;;13.86;69.21;99576.63;5107891;28;20032;-82
2023/10/22 09:07:56;;;;;;;4.43;0.95;;;13.90;99.90;;;13.98;70.04;99576.44;5080325;28;20040;-82
2023/10/22 09:10:30;;;;;;;3.70;0.90;;;14.00;99.90;;;14.06;70.19;99584.84;5108543;28;20039;-82
2023/10/22 09:13:15;;;;;;;3.08;1.10;;;14.10;99.90;;;14.01;69.13;99586.69;5107958;28;20495;-82
2023/10/22 09:15:46;;;;;;;2.33;1.00;;;14.00;99.90;;;14.01;69.71;99587.47;5089693;28;20070;-82
2023/10/22 09:18:17;;;;;;;4.30;0.77;;;14.10;99.90;;;14.05;69.94;99593.13;5109136;28;20044;-82
2023/10/22 09:20:45;;;;;;;;;;;14.10;99.90;;;14.06;69.67;99598.25;5126777;28;20048;-83
2023/10/22 09:23:18;;;;;;;2.83;1.00;;;14.10;99.90;;;14.06;70.03;99606.28;5126376;28;19950;-82
2023/10/22 09:25:47;;;;;;;2.95;0.90;;;14.20;99.90;;;14.16;70.52;99598.31;5092530;28;20059;-82
2023/10/22 09:28:20;;;;;;;3.35;1.00;;;14.20;99.90;;;14.20;70.05;99593.28;5108943;28;20036;-82
2023/10/22 09:30:48;;;;;;;2.78;1.00;;;14.20;99.90;;;14.18;69.43;99604.22;5124573;28;20048;-82
2023/10/22 09:33:20;;;;;;;4.03;1.08;;;14.30;99.90;;;14.21;70.38;99596.75;5108231;28;20423;-82
2023/10/22 09:36:10;;;;;;;3.55;1.20;;;14.30;99.90;;;14.23;69.96;99603.47;5107323;28;20067;-82
2023/10/22 09:38:46;;;;;;;4.32;0.95;;;14.30;99.90;;;14.29;70.05;99601.63;5093783;28;20048;-81
2023/10/22 09:41:20;;;;;;;4.22;1.00;;;14.40;99.90;;;14.30;70.02;99613.97;5107136;28;20418;-81
2023/10/22 09:43:47;;;;;;;2.92;1.10;;;14.40;99.90;;;14.28;70.51;99614.22;5108903;28;20055;-82
2023/10/22 09:46:17;;;;;;;2.78;0.88;;;14.40;99.90;;;14.33;70.62;99613.47;5089368;28;20047;-82
2023/10/22 09:48:49;;;;;;;2.08;1.00;;;14.40;99.90;;;14.32;70.49;99619.91;5107748;28;20521;-83
2023/10/22 09:51:18;;;;;;;4.93;1.00;;;14.40;99.90;;;14.29;70.49;99623.88;5090452;28;20133;-82
2023/10/22 09:53:52;;;;;;;6.85;1.30;;;14.40;99.90;;;14.22;70.57;99623.31;5091277;28;20055;-82
2023/10/22 09:56:23;;;;;;;4.90;1.30;;;14.40;99.90;;;14.22;71.11;99641.28;5108739;28;20055;-82
2023/10/22 09:59:01;;;;;;;5.68;1.60;;;14.40;99.90;;;14.25;70.67;99632.69;5108142;28;20149;-82
2023/10/22 10:01:32;;;;;;;3.50;0.90;;;14.40;99.90;;;14.23;70.63;99642.88;5111312;28;20063;-82
2023/10/22 10:04:03;;;;;;;3.42;1.00;;;14.40;99.90;;;14.27;71.32;99641.31;5130509;28;20074;-82
2023/10/22 10:06:38;;;;;;;;;;;14.40;99.90;;;14.27;70.94;99649.38;5129668;28;20115;-82
2023/10/22 10:09:09;;;;;;;5.95;1.42;;;14.40;99.90;;;14.22;71.53;99652.81;5079878;28;19991;-82
2023/10/22 10:11:38;;;;;;;5.47;1.00;;;14.30;99.90;;;14.25;71.70;99657.69;5088738;28;20082;-82
2023/10/22 10:14:13;;;;;;;3.33;0.98;;;14.30;99.90;;;14.26;71.64;99653.91;5110999;28;20044;-82
2023/10/22 10:16:46;;;;;;;3.88;1.25;;;14.30;99.90;;;14.25;71.67;99651.47;5127145;28;20044;-82
2023/10/22 10:19:22;;;;;;;5.13;1.40;;;14.30;99.90;;;14.20;71.19;99665.69;5114059;28;20048;-81
2023/10/22 10:21:51;;;;;;;3.97;1.40;;;14.30;99.90;;;14.23;72.40;99675.88;5110096;28;20062;-82
2023/10/22 10:24:26;;;;;;;4.43;1.30;;;14.30;99.90;;;14.24;72.30;99674.00;5092977;28;20065;-81
2023/10/22 10:27:26;;;;;;;5.72;1.25;;;14.30;99.90;;;14.25;72.29;99676.44;5093063;28;20051;-81
2023/10/22 10:30:18;;;;;;;4.55;1.33;;;14.40;99.90;;;14.30;73.04;99675.66;5102269;28;20499;-81